sensor_id;sensor_type;location;lat;lon;timestamp;pressure;altitude;pressure_sealevel;temperature;humidity
59106;BME280;44891;50.204;8.132;2023-03-22T00:01:25;97922.56;;;8.95;91.27
59106;BME280;44891;50.204;8.132;2023-03-22T00:05:29;97914.94;;;8.94;91.79
59106;BME280;44891;50.204;8.132;2023-03-22T00:09:31;97910.75;;;8.93;92.14
59106;BME280;44891;50.204;8.132;2023-03-22T00:13:33;97914.03;;;9.00;91.17
59106;BME280;44891;50.204;8.132;2023-03-22T00:17:35;97917.66;;;8.99;92.31
59106;BME280;44891;50.204;8.132;2023-03-22T00:21:39;97911.84;;;8.97;92.06
59106;BME280;44891;50.204;8.132;2023-03-22T00:25:41;97908.09;;;9.05;91.42
59106;BME280;44891;50.204;8.132;2023-03-22T00:29:42;97912.50;;;9.04;91.20
59106;BME280;44891;50.204;8.132;2023-03-22T00:33:44;97909.44;;;9.07;90.46
59106;BME280;44891;50.204;8.132;2023-03-22T00:37:47;97903.00;;;8.98;91.04
59106;BME280;44891;50.204;8.132;2023-03-22T00:41:50;97904.44;;;9.06;90.05
59106;BME280;44891;50.204;8.132;2023-03-22T00:45:52;97898.41;;;9.05;90.01
59106;BME280;44891;50.204;8.132;2023-03-22T00:49:54;97906.03;;;8.78;92.19
59106;BME280;44891;50.204;8.132;2023-03-22T00:53:58;97897.63;;;8.64;92.68
59106;BME280;44891;50.204;8.132;2023-03-22T00:58:00;97895.66;;;8.43;93.95
59106;BME280;44891;50.204;8.132;2023-03-22T01:02:02;97878.38;;;8.30;95.03
59106;BME280;44891;50.204;8.132;2023-03-22T01:06:05;97870.22;;;8.03;96.29
59106;BME280;44891;50.204;8.132;2023-03-22T01:10:10;97882.28;;;8.04;96.10
59106;BME280;44891;50.204;8.132;2023-03-22T01:14:12;97871.03;;;7.92;96.98
59106;BME280;44891;50.204;8.132;2023-03-22T01:18:14;97871.16;;;7.97;95.44
59106;BME280;44891;50.204;8.132;2023-03-22T01:22:16;97866.97;;;7.84;95.38
59106;BME280;44891;50.204;8.132;2023-03-22T01:26:19;97858.66;;;7.99;96.36
59106;BME280;44891;50.204;8.132;2023-03-22T01:30:21;97856.13;;;8.04;96.87
59106;BME280;44891;50.204;8.132;2023-03-22T01:34:23;97857.03;;;8.10;96.55
59106;BME280;44891;50.204;8.132;2023-03-22T01:38:26;97854.09;;;8.06;97.66
59106;BME280;44891;50.204;8.132;2023-03-22T01:42:33;97851.91;;;8.15;97.23
59106;BME280;44891;50.204;8.132;2023-03-22T01:46:39;97844.75;;;8.10;97.42
59106;BME280;44891;50.204;8.132;2023-03-22T01:50:42;97838.31;;;7.89;99.65
59106;BME280;44891;50.204;8.132;2023-03-22T01:54:46;97840.13;;;8.01;98.65
59106;BME280;44891;50.204;8.132;2023-03-22T01:59:19;97829.25;;;7.80;99.34
59106;BME280;44891;50.204;8.132;2023-03-22T02:03:42;97828.22;;;7.81;100.00
59106;BME280;44891;50.204;8.132;2023-03-22T02:07:48;97831.50;;;7.88;100.00
59106;BME280;44891;50.204;8.132;2023-03-22T02:11:51;97823.00;;;8.22;100.00
59106;BME280;44891;50.204;8.132;2023-03-22T02:16:09;97813.88;;;8.36;98.82
59106;BME280;44891;50.204;8.132;2023-03-22T02:20:36;97808.47;;;8.54;97.49
59106;BME280;44891;50.204;8.132;2023-03-22T02:24:53;97805.84;;;8.54;96.82
59106;BME280;44891;50.204;8.132;2023-03-22T02:29:03;97809.56;;;8.58;96.11
59106;BME280;44891;50.204;8.132;2023-03-22T02:33:13;97805.06;;;8.54;96.03
59106;BME280;44891;50.204;8.132;2023-03-22T02:37:31;97811.34;;;8.53;95.71
59106;BME280;44891;50.204;8.132;2023-03-22T02:41:39;97801.41;;;8.55;95.93
59106;BME280;44891;50.204;8.132;2023-03-22T02:45:45;97807.28;;;8.62;95.00
59106;BME280;44891;50.204;8.132;2023-03-22T02:49:51;97793.41;;;8.61;94.87
59106;BME280;44891;50.204;8.132;2023-03-22T02:53:55;97797.13;;;8.49;95.18
59106;BME280;44891;50.204;8.132;2023-03-22T02:58:02;97790.69;;;8.39;95.87
59106;BME280;44891;50.204;8.132;2023-03-22T03:02:07;97782.22;;;8.49;95.78
59106;BME280;44891;50.204;8.132;2023-03-22T03:06:12;97783.88;;;8.55;94.97
59106;BME280;44891;50.204;8.132;2023-03-22T03:10:15;97775.00;;;8.56;94.73
59106;BME280;44891;50.204;8.132;2023-03-22T03:14:20;97781.19;;;8.50;95.56
59106;BME280;44891;50.204;8.132;2023-03-22T03:18:25;97777.31;;;8.53;95.67
59106;BME280;44891;50.204;8.132;2023-03-22T03:22:34;97780.94;;;8.52;95.11
59106;BME280;44891;50.204;8.132;2023-03-22T03:26:41;97768.56;;;8.47;95.62
59106;BME280;44891;50.204;8.132;2023-03-22T03:30:47;97765.75;;;8.37;95.00
59106;BME280;44891;50.204;8.132;2023-03-22T03:34:50;97762.81;;;8.33;95.97
59106;BME280;44891;50.204;8.132;2023-03-22T03:38:55;97757.13;;;8.25;96.20
59106;BME280;44891;50.204;8.132;2023-03-22T03:43:00;97760.00;;;8.23;95.21
59106;BME280;44891;50.204;8.132;2023-03-22T03:47:05;97755.13;;;8.15;96.61
59106;BME280;44891;50.204;8.132;2023-03-22T03:51:08;97753.31;;;8.15;95.96
59106;BME280;44891;50.204;8.132;2023-03-22T03:55:10;97757.25;;;8.01;96.25
59106;BME280;44891;50.204;8.132;2023-03-22T03:59:12;97744.84;;;7.97;96.23
59106;BME280;44891;50.204;8.132;2023-03-22T04:03:16;97732.59;;;7.85;96.19
59106;BME280;44891;50.204;8.132;2023-03-22T04:07:38;97752.06;;;7.78;97.37
59106;BME280;44891;50.204;8.132;2023-03-22T04:11:41;97755.84;;;7.70;97.05
59106;BME280;44891;50.204;8.132;2023-03-22T04:15:43;97751.28;;;7.66;97.35
59106;BME280;44891;50.204;8.132;2023-03-22T04:19:50;97746.28;;;7.76;98.09
59106;BME280;44891;50.204;8.132;2023-03-22T04:23:53;97743.88;;;7.86;97.92
59106;BME280;44891;50.204;8.132;2023-03-22T04:27:56;97743.06;;;7.85;97.63
59106;BME280;44891;50.204;8.132;2023-03-22T04:32:00;97731.38;;;7.88;98.00
59106;BME280;44891;50.204;8.132;2023-03-22T04:36:18;97726.94;;;7.88;97.63
59106;BME280;44891;50.204;8.132;2023-03-22T04:40:36;97721.22;;;7.91;97.83
59106;BME280;44891;50.204;8.132;2023-03-22T04:44:51;97728.47;;;8.01;97.49
59106;BME280;44891;50.204;8.132;2023-03-22T04:48:53;97732.44;;;8.04;97.84
59106;BME280;44891;50.204;8.132;2023-03-22T04:52:57;97735.03;;;8.04;97.14
59106;BME280;44891;50.204;8.132;2023-03-22T04:56:59;97740.53;;;8.02;98.34
59106;BME280;44891;50.204;8.132;2023-03-22T05:01:04;97737.25;;;7.95;99.64
59106;BME280;44891;50.204;8.132;2023-03-22T05:05:06;97734.66;;;7.83;99.61
59106;BME280;44891;50.204;8.132;2023-03-22T05:09:14;97744.56;;;7.81;99.93
59106;BME280;44891;50.204;8.132;2023-03-22T05:13:16;97734.53;;;7.90;100.00
59106;BME280;44891;50.204;8.132;2023-03-22T05:17:19;97744.06;;;7.96;100.00
59106;BME280;44891;50.204;8.132;2023-03-22T05:21:24;97744.31;;;7.83;99.83
59106;BME280;44891;50.204;8.132;2023-03-22T05:25:30;97744.09;;;7.84;100.00
59106;BME280;44891;50.204;8.132;2023-03-22T05:29:33;97737.38;;;7.88;100.00
59106;BME280;44891;50.204;8.132;2023-03-22T05:33:49;97744.16;;;8.01;100.00
59106;BME280;44891;50.204;8.132;2023-03-22T05:37:53;97742.31;;;8.13;100.00
59106;BME280;44891;50.204;8.132;2023-03-22T05:41:57;97746.03;;;8.17;100.00
59106;BME280;44891;50.204;8.132;2023-03-22T05:45:59;97736.59;;;8.16;100.00
59106;BME280;44891;50.204;8.132;2023-03-22T05:50:11;97726.13;;;8.16;100.00
59106;BME280;44891;50.204;8.132;2023-03-22T05:54:14;97731.47;;;8.22;100.00
59106;BME280;44891;50.204;8.132;2023-03-22T05:58:23;97736.69;;;8.22;100.00
59106;BME280;44891;50.204;8.132;2023-03-22T06:02:28;97732.09;;;8.29;100.00
59106;BME280;44891;50.204;8.132;2023-03-22T06:06:31;97727.56;;;8.36;100.00
59106;BME280;44891;50.204;8.132;2023-03-22T06:10:47;97729.47;;;8.40;100.00
59106;BME280;44891;50.204;8.132;2023-03-22T06:14:51;97738.22;;;8.46;100.00
59106;BME280;44891;50.204;8.132;2023-03-22T06:19:13;97734.16;;;8.55;99.29
59106;BME280;44891;50.204;8.132;2023-03-22T06:23:15;97740.28;;;8.61;98.95
59106;BME280;44891;50.204;8.132;2023-03-22T06:27:19;97738.22;;;8.63;99.00
59106;BME280;44891;50.204;8.132;2023-03-22T06:31:23;97750.06;;;8.65;98.69
59106;BME280;44891;50.204;8.132;2023-03-22T06:35:29;97744.81;;;8.65;98.84
59106;BME280;44891;50.204;8.132;2023-03-22T06:39:32;97751.22;;;8.75;99.51
59106;BME280;44891;50.204;8.132;2023-03-22T06:43:34;97749.44;;;8.92;98.99
59106;BME280;44891;50.204;8.132;2023-03-22T06:47:48;97757.34;;;8.97;99.32
59106;BME280;44891;50.204;8.132;2023-03-22T06:52:05;97761.72;;;9.08;98.72
59106;BME280;44891;50.204;8.132;2023-03-22T06:56:08;97763.38;;;9.14;98.69
59106;BME280;44891;50.204;8.132;2023-03-22T07:00:20;97758.22;;;9.19;98.76
59106;BME280;44891;50.204;8.132;2023-03-22T07:04:23;97755.25;;;9.33;98.16
59106;BME280;44891;50.204;8.132;2023-03-22T07:08:27;97756.50;;;9.47;97.44
59106;BME280;44891;50.204;8.132;2023-03-22T07:12:29;97754.38;;;9.66;96.99
59106;BME280;44891;50.204;8.132;2023-03-22T07:16:33;97758.22;;;9.80;96.10
59106;BME280;44891;50.204;8.132;2023-03-22T07:20:39;97758.13;;;9.92;93.73
59106;BME280;44891;50.204;8.132;2023-03-22T07:24:42;97738.69;;;10.15;92.20
59106;BME280;44891;50.204;8.132;2023-03-22T07:28:45;97680.75;;;9.94;92.14
59106;BME280;44891;50.204;8.132;2023-03-22T07:32:48;97729.00;;;10.42;90.53
59106;BME280;44891;50.204;8.132;2023-03-22T07:36:53;97743.09;;;10.58;88.14
59106;BME280;44891;50.204;8.132;2023-03-22T07:40:57;97724.25;;;10.66;87.29
59106;BME280;44891;50.204;8.132;2023-03-22T07:45:10;97737.47;;;10.76;85.19
59106;BME280;44891;50.204;8.132;2023-03-22T07:49:17;97743.53;;;10.82;84.53
59106;BME280;44891;50.204;8.132;2023-03-22T07:53:39;97763.47;;;10.78;82.97
59106;BME280;44891;50.204;8.132;2023-03-22T07:57:41;97741.00;;;10.92;82.34
59106;BME280;44891;50.204;8.132;2023-03-22T08:01:43;97723.97;;;10.68;81.66
59106;BME280;44891;50.204;8.132;2023-03-22T08:06:12;97759.22;;;11.09;82.58
59106;BME280;44891;50.204;8.132;2023-03-22T08:10:15;97760.25;;;11.03;81.63
59106;BME280;44891;50.204;8.132;2023-03-22T08:14:17;97763.63;;;10.98;82.04
59106;BME280;44891;50.204;8.132;2023-03-22T08:18:19;97765.78;;;11.06;81.57
59106;BME280;44891;50.204;8.132;2023-03-22T08:22:22;97768.28;;;11.23;82.73
59106;BME280;44891;50.204;8.132;2023-03-22T08:26:45;97758.22;;;11.15;80.90
59106;BME280;44891;50.204;8.132;2023-03-22T08:30:56;97752.47;;;11.18;81.42
59106;BME280;44891;50.204;8.132;2023-03-22T08:34:59;97757.78;;;11.23;79.32
59106;BME280;44891;50.204;8.132;2023-03-22T08:39:01;97748.88;;;11.29;79.31
59106;BME280;44891;50.204;8.132;2023-03-22T08:43:31;97739.16;;;11.35;78.25
59106;BME280;44891;50.204;8.132;2023-03-22T08:47:33;97728.38;;;11.31;77.92
59106;BME280;44891;50.204;8.132;2023-03-22T08:51:38;97726.63;;;11.52;77.53
59106;BME280;44891;50.204;8.132;2023-03-22T08:55:51;97720.94;;;11.70;74.20
59106;BME280;44891;50.204;8.132;2023-03-22T09:00:13;97733.66;;;11.94;74.59
59106;BME280;44891;50.204;8.132;2023-03-22T09:04:26;97721.09;;;12.06;74.15
59106;BME280;44891;50.204;8.132;2023-03-22T09:08:29;97718.19;;;12.13;76.46
59106;BME280;44891;50.204;8.132;2023-03-22T09:12:39;97711.91;;;12.24;76.36
59106;BME280;44891;50.204;8.132;2023-03-22T09:16:42;97705.81;;;12.03;75.54
59106;BME280;44891;50.204;8.132;2023-03-22T09:20:45;97698.97;;;12.07;75.65
59106;BME280;44891;50.204;8.132;2023-03-22T09:24:50;97705.28;;;12.01;73.57
59106;BME280;44891;50.204;8.132;2023-03-22T09:28:52;97700.00;;;11.91;72.91
59106;BME280;44891;50.204;8.132;2023-03-22T09:32:56;97699.78;;;12.03;71.95
59106;BME280;44891;50.204;8.132;2023-03-22T09:36:58;97708.47;;;12.03;69.49
59106;BME280;44891;50.204;8.132;2023-03-22T09:41:10;97693.50;;;12.29;70.73
59106;BME280;44891;50.204;8.132;2023-03-22T09:45:14;97688.75;;;12.46;70.70
59106;BME280;44891;50.204;8.132;2023-03-22T09:49:19;97686.94;;;12.88;71.25
59106;BME280;44891;50.204;8.132;2023-03-22T09:53:24;97686.09;;;12.87;71.19
59106;BME280;44891;50.204;8.132;2023-03-22T09:57:28;97682.41;;;12.93;71.23
59106;BME280;44891;50.204;8.132;2023-03-22T10:01:34;97689.03;;;13.01;70.41
59106;BME280;44891;50.204;8.132;2023-03-22T10:05:38;97685.31;;;13.22;68.63
59106;BME280;44891;50.204;8.132;2023-03-22T10:09:45;97692.66;;;13.30;66.29
59106;BME280;44891;50.204;8.132;2023-03-22T10:13:53;97681.53;;;13.49;66.46
59106;BME280;44891;50.204;8.132;2023-03-22T10:17:57;97688.16;;;13.36;65.79
59106;BME280;44891;50.204;8.132;2023-03-22T10:22:02;97691.22;;;13.64;65.61
59106;BME280;44891;50.204;8.132;2023-03-22T10:26:05;97686.06;;;13.93;64.74
59106;BME280;44891;50.204;8.132;2023-03-22T10:30:11;97685.38;;;13.72;64.62
59106;BME280;44891;50.204;8.132;2023-03-22T10:34:20;97686.44;;;13.76;65.50
59106;BME280;44891;50.204;8.132;2023-03-22T10:38:25;97684.59;;;13.76;65.83
59106;BME280;44891;50.204;8.132;2023-03-22T10:42:28;97681.09;;;13.86;63.72
59106;BME280;44891;50.204;8.132;2023-03-22T10:46:32;97686.41;;;13.81;63.97
59106;BME280;44891;50.204;8.132;2023-03-22T10:50:37;97676.16;;;14.19;63.24
59106;BME280;44891;50.204;8.132;2023-03-22T10:54:41;97679.09;;;14.56;62.71
59106;BME280;44891;50.204;8.132;2023-03-22T10:58:43;97676.03;;;15.02;63.04
59106;BME280;44891;50.204;8.132;2023-03-22T11:02:46;97670.69;;;15.07;58.96
59106;BME280;44891;50.204;8.132;2023-03-22T11:06:52;97657.38;;;15.84;57.70
59106;BME280;44891;50.204;8.132;2023-03-22T11:10:55;97659.88;;;16.32;55.20
59106;BME280;44891;50.204;8.132;2023-03-22T11:14:59;97657.59;;;16.25;54.95
59106;BME280;44891;50.204;8.132;2023-03-22T11:19:01;97659.00;;;16.69;52.30
59106;BME280;44891;50.204;8.132;2023-03-22T11:23:03;97661.25;;;17.08;51.68
59106;BME280;44891;50.204;8.132;2023-03-22T11:27:15;97661.56;;;17.21;50.13
59106;BME280;44891;50.204;8.132;2023-03-22T11:31:19;97662.97;;;17.32;49.30
59106;BME280;44891;50.204;8.132;2023-03-22T11:35:22;97656.53;;;16.92;50.26
59106;BME280;44891;50.204;8.132;2023-03-22T11:39:25;97647.69;;;16.96;49.73
59106;BME280;44891;50.204;8.132;2023-03-22T11:43:32;97652.84;;;17.20;48.97
59106;BME280;44891;50.204;8.132;2023-03-22T11:47:35;97650.47;;;17.46;48.07
59106;BME280;44891;50.204;8.132;2023-03-22T11:51:38;97646.44;;;18.35;45.93
59106;BME280;44891;50.204;8.132;2023-03-22T11:55:41;97613.88;;;18.52;44.57
59106;BME280;44891;50.204;8.132;2023-03-22T11:59:47;97647.72;;;18.82;45.55
59106;BME280;44891;50.204;8.132;2023-03-22T12:03:51;97641.44;;;19.58;43.89
59106;BME280;44891;50.204;8.132;2023-03-22T12:07:57;97625.94;;;22.11;39.23
59106;BME280;44891;50.204;8.132;2023-03-22T12:12:00;97630.25;;;21.24;39.21
59106;BME280;44891;50.204;8.132;2023-03-22T12:16:05;97626.31;;;22.43;37.64
59106;BME280;44891;50.204;8.132;2023-03-22T12:20:11;97633.47;;;22.96;35.97
59106;BME280;44891;50.204;8.132;2023-03-22T12:24:21;97640.66;;;23.04;36.51
59106;BME280;44891;50.204;8.132;2023-03-22T12:28:26;97631.88;;;21.96;37.65
59106;BME280;44891;50.204;8.132;2023-03-22T12:32:32;97631.41;;;20.58;40.44
59106;BME280;44891;50.204;8.132;2023-03-22T12:36:36;97625.19;;;21.39;38.62
59106;BME280;44891;50.204;8.132;2023-03-22T12:40:42;97626.16;;;20.79;38.51
59106;BME280;44891;50.204;8.132;2023-03-22T12:44:44;97622.97;;;20.22;39.32
59106;BME280;44891;50.204;8.132;2023-03-22T12:48:49;97621.38;;;20.38;39.07
59106;BME280;44891;50.204;8.132;2023-03-22T12:52:52;97611.75;;;20.72;38.19
59106;BME280;44891;50.204;8.132;2023-03-22T12:56:55;97611.34;;;20.26;38.03
59106;BME280;44891;50.204;8.132;2023-03-22T13:00:58;97598.50;;;19.85;39.11
59106;BME280;44891;50.204;8.132;2023-03-22T13:05:10;97595.81;;;20.37;38.92
59106;BME280;44891;50.204;8.132;2023-03-22T13:09:13;97585.34;;;20.79;38.25
59106;BME280;44891;50.204;8.132;2023-03-22T13:13:30;97589.66;;;21.39;36.11
59106;BME280;44891;50.204;8.132;2023-03-22T13:17:41;97584.69;;;22.78;34.82
59106;BME280;44891;50.204;8.132;2023-03-22T13:21:44;97586.28;;;23.04;34.51
59106;BME280;44891;50.204;8.132;2023-03-22T13:25:58;97590.28;;;20.68;37.77
59106;BME280;44891;50.204;8.132;2023-03-22T13:30:23;97586.94;;;18.44;42.48
59106;BME280;44891;50.204;8.132;2023-03-22T13:34:30;97579.31;;;17.84;43.42
59106;BME280;44891;50.204;8.132;2023-03-22T13:38:34;97585.72;;;17.06;46.42
59106;BME280;44891;50.204;8.132;2023-03-22T13:42:38;97570.88;;;16.77;46.82
59106;BME280;44891;50.204;8.132;2023-03-22T13:46:45;97571.88;;;16.49;47.78
59106;BME280;44891;50.204;8.132;2023-03-22T13:50:49;97580.47;;;16.27;48.41
59106;BME280;44891;50.204;8.132;2023-03-22T13:54:55;97574.59;;;16.44;48.00
59106;BME280;44891;50.204;8.132;2023-03-22T13:58:57;97567.38;;;16.17;48.85
59106;BME280;44891;50.204;8.132;2023-03-22T14:03:02;97559.06;;;16.23;49.07
59106;BME280;44891;50.204;8.132;2023-03-22T14:07:09;97557.94;;;16.11;49.26
59106;BME280;44891;50.204;8.132;2023-03-22T14:11:20;97554.75;;;16.27;48.85
59106;BME280;44891;50.204;8.132;2023-03-22T14:15:24;97543.78;;;16.01;49.39
59106;BME280;44891;50.204;8.132;2023-03-22T14:19:28;97560.00;;;15.62;50.60
59106;BME280;44891;50.204;8.132;2023-03-22T14:23:32;97556.50;;;15.67;51.21
59106;BME280;44891;50.204;8.132;2023-03-22T14:27:37;97543.44;;;15.51;51.27
59106;BME280;44891;50.204;8.132;2023-03-22T14:31:41;97549.59;;;15.47;51.66
59106;BME280;44891;50.204;8.132;2023-03-22T14:35:44;97548.09;;;15.41;51.78
59106;BME280;44891;50.204;8.132;2023-03-22T14:39:48;97550.31;;;15.34;50.90
59106;BME280;44891;50.204;8.132;2023-03-22T14:43:56;97556.09;;;15.36;50.88
59106;BME280;44891;50.204;8.132;2023-03-22T14:47:59;97548.16;;;15.36;50.44
59106;BME280;44891;50.204;8.132;2023-03-22T14:52:01;97554.53;;;15.35;50.47
59106;BME280;44891;50.204;8.132;2023-03-22T14:56:04;97548.91;;;15.17;50.44
59106;BME280;44891;50.204;8.132;2023-03-22T15:00:11;97550.56;;;15.13;51.24
59106;BME280;44891;50.204;8.132;2023-03-22T15:04:16;97553.72;;;15.15;51.13
59106;BME280;44891;50.204;8.132;2023-03-22T15:08:22;97536.31;;;15.09;50.36
59106;BME280;44891;50.204;8.132;2023-03-22T15:12:25;97544.09;;;15.01;51.17
59106;BME280;44891;50.204;8.132;2023-03-22T15:16:29;97548.63;;;15.00;51.41
59106;BME280;44891;50.204;8.132;2023-03-22T15:20:33;97551.38;;;14.90;51.94
59106;BME280;44891;50.204;8.132;2023-03-22T15:24:36;97541.38;;;14.87;51.51
59106;BME280;44891;50.204;8.132;2023-03-22T15:28:40;97539.16;;;14.94;52.21
59106;BME280;44891;50.204;8.132;2023-03-22T15:32:45;97532.31;;;14.93;52.58
59106;BME280;44891;50.204;8.132;2023-03-22T15:36:47;97528.03;;;14.73;51.74
59106;BME280;44891;50.204;8.132;2023-03-22T15:40:49;97518.34;;;14.63;49.56
59106;BME280;44891;50.204;8.132;2023-03-22T15:44:52;97529.50;;;14.60;49.80
59106;BME280;44891;50.204;8.132;2023-03-22T15:48:57;97537.03;;;14.43;50.47
59106;BME280;44891;50.204;8.132;2023-03-22T15:52:59;97527.44;;;14.52;50.34
59106;BME280;44891;50.204;8.132;2023-03-22T15:57:08;97531.75;;;14.43;48.78
59106;BME280;44891;50.204;8.132;2023-03-22T16:01:12;97539.47;;;14.39;49.06
59106;BME280;44891;50.204;8.132;2023-03-22T16:05:17;97544.44;;;14.41;50.05
59106;BME280;44891;50.204;8.132;2023-03-22T16:09:19;97541.25;;;14.44;48.90
59106;BME280;44891;50.204;8.132;2023-03-22T16:13:21;97543.09;;;14.43;49.39
59106;BME280;44891;50.204;8.132;2023-03-22T16:17:24;97535.16;;;14.43;49.85
59106;BME280;44891;50.204;8.132;2023-03-22T16:21:28;97528.06;;;14.39;50.79
59106;BME280;44891;50.204;8.132;2023-03-22T16:25:30;97528.69;;;14.31;51.23
59106;BME280;44891;50.204;8.132;2023-03-22T16:29:34;97535.66;;;14.22;51.63
59106;BME280;44891;50.204;8.132;2023-03-22T16:33:36;97537.78;;;14.20;51.80
59106;BME280;44891;50.204;8.132;2023-03-22T16:37:40;97518.72;;;14.23;51.62
59106;BME280;44891;50.204;8.132;2023-03-22T16:41:43;97524.63;;;14.14;51.73
59106;BME280;44891;50.204;8.132;2023-03-22T16:45:45;97536.25;;;14.13;52.00
59106;BME280;44891;50.204;8.132;2023-03-22T16:49:48;97542.84;;;14.11;52.47
59106;BME280;44891;50.204;8.132;2023-03-22T16:53:51;97544.19;;;14.13;53.01
59106;BME280;44891;50.204;8.132;2023-03-22T16:57:53;97546.81;;;14.13;52.86
59106;BME280;44891;50.204;8.132;2023-03-22T17:01:55;97516.16;;;13.83;53.63
59106;BME280;44891;50.204;8.132;2023-03-22T17:05:57;97556.66;;;14.03;53.45
59106;BME280;44891;50.204;8.132;2023-03-22T17:10:00;97559.59;;;14.01;53.04
59106;BME280;44891;50.204;8.132;2023-03-22T17:14:02;97560.69;;;13.95;53.52
59106;BME280;44891;50.204;8.132;2023-03-22T17:18:05;97557.53;;;13.93;53.31
59106;BME280;44891;50.204;8.132;2023-03-22T17:22:09;97555.69;;;13.94;53.33
59106;BME280;44891;50.204;8.132;2023-03-22T17:26:13;97545.13;;;13.94;54.01
59106;BME280;44891;50.204;8.132;2023-03-22T17:30:16;97546.41;;;13.96;53.51
59106;BME280;44891;50.204;8.132;2023-03-22T17:34:18;97547.22;;;13.92;53.64
59106;BME280;44891;50.204;8.132;2023-03-22T17:38:20;97549.09;;;13.91;52.72
59106;BME280;44891;50.204;8.132;2023-03-22T17:42:23;97542.75;;;13.92;52.49
59106;BME280;44891;50.204;8.132;2023-03-22T17:46:25;97543.84;;;13.86;53.09
59106;BME280;44891;50.204;8.132;2023-03-22T17:50:28;97542.84;;;13.82;52.72
59106;BME280;44891;50.204;8.132;2023-03-22T17:54:32;97548.91;;;13.82;53.09
59106;BME280;44891;50.204;8.132;2023-03-22T17:58:35;97542.28;;;13.80;52.82
59106;BME280;44891;50.204;8.132;2023-03-22T18:02:37;97539.72;;;13.75;53.76
59106;BME280;44891;50.204;8.132;2023-03-22T18:06:39;97539.47;;;13.71;53.56
59106;BME280;44891;50.204;8.132;2023-03-22T18:10:43;97554.00;;;13.69;53.74
59106;BME280;44891;50.204;8.132;2023-03-22T18:14:46;97539.78;;;13.65;53.91
59106;BME280;44891;50.204;8.132;2023-03-22T18:18:48;97542.91;;;13.67;53.98
59106;BME280;44891;50.204;8.132;2023-03-22T18:22:51;97552.94;;;13.70;53.53
59106;BME280;44891;50.204;8.132;2023-03-22T18:26:53;97548.19;;;13.67;53.88
59106;BME280;44891;50.204;8.132;2023-03-22T18:30:56;97550.88;;;13.62;54.36
59106;BME280;44891;50.204;8.132;2023-03-22T18:34:59;97549.25;;;13.66;53.94
59106;BME280;44891;50.204;8.132;2023-03-22T18:39:01;97532.66;;;13.65;54.04
59106;BME280;44891;50.204;8.132;2023-03-22T18:43:04;97538.44;;;13.67;53.50
59106;BME280;44891;50.204;8.132;2023-03-22T18:47:07;97552.44;;;13.68;53.88
59106;BME280;44891;50.204;8.132;2023-03-22T18:51:14;97542.69;;;13.63;53.90
59106;BME280;44891;50.204;8.132;2023-03-22T18:55:16;97534.53;;;13.59;53.57
59106;BME280;44891;50.204;8.132;2023-03-22T18:59:18;97534.00;;;13.63;54.24
59106;BME280;44891;50.204;8.132;2023-03-22T19:03:21;97517.66;;;13.60;53.95
59106;BME280;44891;50.204;8.132;2023-03-22T19:07:24;97510.28;;;13.57;54.57
59106;BME280;44891;50.204;8.132;2023-03-22T19:11:26;97518.47;;;13.56;54.31
59106;BME280;44891;50.204;8.132;2023-03-22T19:15:27;97524.25;;;13.58;54.93
59106;BME280;44891;50.204;8.132;2023-03-22T19:19:31;97516.13;;;13.49;55.19
59106;BME280;44891;50.204;8.132;2023-03-22T19:23:33;97515.56;;;13.52;54.77
59106;BME280;44891;50.204;8.132;2023-03-22T19:27:35;97517.16;;;13.53;54.91
59106;BME280;44891;50.204;8.132;2023-03-22T19:31:37;97514.56;;;13.48;55.68
59106;BME280;44891;50.204;8.132;2023-03-22T19:35:42;97496.34;;;13.47;55.33
59106;BME280;44891;50.204;8.132;2023-03-22T19:39:44;97494.00;;;13.45;55.30
59106;BME280;44891;50.204;8.132;2023-03-22T19:43:46;97496.63;;;13.45;55.28
59106;BME280;44891;50.204;8.132;2023-03-22T19:47:48;97499.03;;;13.42;55.75
59106;BME280;44891;50.204;8.132;2023-03-22T19:51:51;97497.50;;;13.36;56.46
59106;BME280;44891;50.204;8.132;2023-03-22T19:55:56;97504.63;;;13.35;56.55
59106;BME280;44891;50.204;8.132;2023-03-22T19:59:58;97498.78;;;13.38;56.00
59106;BME280;44891;50.204;8.132;2023-03-22T20:04:01;97490.09;;;13.38;56.41
59106;BME280;44891;50.204;8.132;2023-03-22T20:08:04;97511.94;;;13.43;56.38
59106;BME280;44891;50.204;8.132;2023-03-22T20:12:06;97500.38;;;13.39;56.74
59106;BME280;44891;50.204;8.132;2023-03-22T20:16:08;97498.88;;;13.28;57.05
59106;BME280;44891;50.204;8.132;2023-03-22T20:20:11;97480.66;;;13.26;57.42
59106;BME280;44891;50.204;8.132;2023-03-22T20:24:15;97481.72;;;13.25;57.82
59106;BME280;44891;50.204;8.132;2023-03-22T20:28:17;97479.66;;;13.22;57.64
59106;BME280;44891;50.204;8.132;2023-03-22T20:32:19;97474.09;;;13.19;56.79
59106;BME280;44891;50.204;8.132;2023-03-22T20:36:21;97474.09;;;13.19;56.38
59106;BME280;44891;50.204;8.132;2023-03-22T20:40:24;97468.81;;;13.19;55.78
59106;BME280;44891;50.204;8.132;2023-03-22T20:44:26;97468.31;;;13.17;56.02
59106;BME280;44891;50.204;8.132;2023-03-22T20:48:29;97464.63;;;13.13;56.36
59106;BME280;44891;50.204;8.132;2023-03-22T20:52:31;97459.34;;;13.13;56.58
59106;BME280;44891;50.204;8.132;2023-03-22T20:56:34;97450.91;;;13.16;56.70
59106;BME280;44891;50.204;8.132;2023-03-22T21:00:36;97453.03;;;13.14;56.66
59106;BME280;44891;50.204;8.132;2023-03-22T21:04:38;97438.53;;;13.16;56.53
59106;BME280;44891;50.204;8.132;2023-03-22T21:08:40;97447.75;;;13.14;56.93
59106;BME280;44891;50.204;8.132;2023-03-22T21:12:44;97449.59;;;13.13;57.29
59106;BME280;44891;50.204;8.132;2023-03-22T21:16:46;97436.19;;;13.10;57.50
59106;BME280;44891;50.204;8.132;2023-03-22T21:20:47;97406.31;;;12.80;57.58
59106;BME280;44891;50.204;8.132;2023-03-22T21:24:49;97448.59;;;13.09;57.35
59106;BME280;44891;50.204;8.132;2023-03-22T21:28:52;97447.53;;;13.05;58.47
59106;BME280;44891;50.204;8.132;2023-03-22T21:32:54;97448.91;;;12.97;58.78
59106;BME280;44891;50.204;8.132;2023-03-22T21:36:56;97452.59;;;13.01;58.74
59106;BME280;44891;50.204;8.132;2023-03-22T21:40:59;97449.16;;;13.01;58.41